Buoy 52594

sailwx.info

Track history (hours):
 
Tides and Currents Weather Stations Pressure Air Temp Water Temp Dewpoint Dewpoint Depression Visibility Wind Speed Wind Dir Waves Ship Positions

Drifting buoy 52594

Last reported at 2017-Sep-25 14:00 UTC. Time now 2017-Sep-25 14:57 UTC.
Position N 33°13' W 141°04'.

Water temperature 23.6 ° C

Date/timePositionNaut miles runAvg speedWind from/ knotsBaromVisibWave heightAir tempDewpointWater temp
2017-Sep-25 14:00N 33°13' W 141°04'2 2.1 23.6
2017-Sep-25 13:00N 33°13' W 141°07'0 0.0 23.6
2017-Sep-25 12:00N 33°13' W 141°07'3 0.6 23.6
2017-Sep-25 07:00N 33°12' W 141°04'0 0.0 23.6
2017-Sep-25 06:00N 33°12' W 141°04'0 0.0 23.6
2017-Sep-25 05:00N 33°12' W 141°04'1 0.6 23.6
2017-Sep-25 04:00N 33°11' W 141°04'1 0.3 23.7
2017-Sep-25 02:00N 33°11' W 141°03'0 0.0 23.6
2017-Sep-25 01:00N 33°11' W 141°03'0 0.0 23.7
2017-Sep-25 00:00N 33°11' W 141°03'1 0.8 23.7
2017-Sep-24 23:00N 33°11' W 141°02'0 0.0 23.7
2017-Sep-24 22:00N 33°11' W 141°02'1 0.2 23.7
2017-Sep-24 19:00N 33°10' W 141°02'1 0.5 23.6
2017-Sep-24 18:00N 33°10' W 141°02'0 0.0 23.6
2017-Sep-24 17:00N 33°10' W 141°02'0 0.0 23.6
2017-Sep-24 16:00N 33°10' W 141°02'1 0.5 23.6
2017-Sep-24 15:00N 33°10' W 141°01'1 0.5 23.6
2017-Sep-24 14:00N 33°10' W 141°02'1 0.5 23.6
2017-Sep-24 13:00N 33°10' W 141°02'2 1.5 23.6
2017-Sep-24 12:00N 33°10' W 141°01'2 1.5 23.6
2017-Sep-24 11:00N 33°10' W 141°02'1 0.3 23.6
2017-Sep-24 07:00N 33°11' W 141°02'0 0.0 23.6
2017-Sep-24 06:00N 33°11' W 141°02'1 0.8 23.6
2017-Sep-24 05:00N 33°12' W 141°02'1 0.6 23.6
2017-Sep-24 04:00N 33°11' W 141°02'1 0.5 23.6
2017-Sep-24 03:00N 33°11' W 141°02'1 0.5 23.6
2017-Sep-24 01:00N 33°11' W 141°01'0 0.0 23.6
2017-Sep-24 00:00N 33°11' W 141°01'0 0.0 23.6
2017-Sep-23 23:00N 33°11' W 141°01'0 0.0 23.4
2017-Sep-23 22:00N 33°11' W 141°01'1 0.3 23.4
2017-Sep-23 20:00N 33°11' W 141°01'1 0.5 23.4
2017-Sep-23 19:00N 33°11' W 141°02'1 0.3 23.3
2017-Sep-23 17:00N 33°11' W 141°01'1 1.0 23.3
2017-Sep-23 16:00N 33°11' W 141°00'0 0.0 23.3
2017-Sep-23 15:00N 33°11' W 141°00'0 0.0 23.2
2017-Sep-23 14:00N 33°11' W 141°00'2 1.9 23.3
2017-Sep-23 13:00N 33°13' W 141°01'0 0.0 23.3
2017-Sep-23 12:00N 33°13' W 141°01'2 1.6 23.3
2017-Sep-23 11:00N 33°12' W 140°59'0 0.0 23.2
2017-Sep-23 07:00N 33°12' W 140°59'0 0.0 23.3
2017-Sep-23 06:00N 33°12' W 140°59'0 0.0 23.3
2017-Sep-23 05:00N 33°12' W 140°59'1 0.5 23.3
2017-Sep-23 04:00N 33°12' W 140°59'1 0.6 23.4
2017-Sep-23 03:00N 33°11' W 140°59'1 0.5 23.3
2017-Sep-23 01:00N 33°11' W 140°58'0 0.0 23.4
2017-Sep-23 00:00N 33°11' W 140°58'0 0.0
2017-Sep-22 23:00N 33°11' W 140°58'1 0.4 23.4
2017-Sep-22 20:00N 33°11' W 140°56'0 0.0 23.4
2017-Sep-22 18:00N 33°11' W 140°56'1 0.8 23.4
2017-Sep-22 17:00N 33°10' W 140°56'1 0.5 23.4
2017-Sep-22 16:00N 33°10' W 140°55'1 1.0 23.4
2017-Sep-22 15:00N 33°10' W 140°54'0 0.0 23.4
2017-Sep-22 14:00N 33°10' W 140°54'1 0.8 23.4
2017-Sep-22 13:00N 33°10' W 140°55'2 2.0 23.4
2017-Sep-22 12:00N 33°10' W 140°52'2 2.0 23.4
2017-Sep-22 11:00N 33°10' W 140°55'2 0.5 23.5
2017-Sep-22 07:00N 33°09' W 140°52'0 0.0 23.6
2017-Sep-22 06:00N 33°09' W 140°52'1 0.8 23.6
2017-Sep-22 05:00N 33°08' W 140°52'1 0.5 23.6
2017-Sep-22 04:00N 33°08' W 140°51'1 0.4 23.6
2017-Sep-22 02:00N 33°08' W 140°50'0 0.0 23.6
2017-Sep-22 01:00N 33°08' W 140°50'1 1.0 23.6
2017-Sep-22 00:00N 33°08' W 140°49'0 0.0 23.6
2017-Sep-21 23:00N 33°08' W 140°49'3 1.0 23.5
2017-Sep-21 20:00N 33°07' W 140°46'1 0.6 23.5
2017-Sep-21 18:00N 33°08' W 140°44'0 0.0 23.4
2017-Sep-21 17:00N 33°08' W 140°44'0 0.0 23.4
2017-Sep-21 16:00N 33°08' W 140°44'1 0.5 23.4
2017-Sep-21 15:00N 33°08' W 140°44'0 0.0 23.4
2017-Sep-21 14:00N 33°08' W 140°44'1 0.6 23.4
2017-Sep-21 13:00N 33°08' W 140°44'2 1.6 23.4
2017-Sep-21 12:00N 33°09' W 140°42'2 1.6 23.4
2017-Sep-21 11:00N 33°08' W 140°44'2 0.5 23.4
2017-Sep-21 08:00N 33°09' W 140°42'0 0.0 23.4
2017-Sep-21 07:00N 33°09' W 140°42'1 0.5 23.4
2017-Sep-21 06:00N 33°09' W 140°43'1 0.8 23.4
2017-Sep-21 05:00N 33°10' W 140°42'1 1.0 23.4
2017-Sep-21 04:00N 33°10' W 140°41'1 0.8 23.4
2017-Sep-21 03:00N 33°09' W 140°41'1 0.5 23.4
2017-Sep-21 02:00N 33°09' W 140°41'0 0.0
2017-Sep-21 01:00N 33°09' W 140°41'1 0.5
2017-Sep-21 00:00N 33°09' W 140°40'0 0.0 23.5
2017-Sep-20 23:00N 33°09' W 140°40'2 0.8 23.6
2017-Sep-20 20:00N 33°10' W 140°38'1 1.0 23.4
2017-Sep-20 19:00N 33°10' W 140°37'1 0.3 23.4
2017-Sep-20 17:00N 33°11' W 140°37'1 0.8 23.4
2017-Sep-20 16:00N 33°11' W 140°36'0 0.0 23.4
2017-Sep-20 15:00N 33°11' W 140°36'0 0.0 23.4
2017-Sep-20 14:00N 33°11' W 140°36'0 0.0 23.4
2017-Sep-20 13:00N 33°11' W 140°36'2 1.9 23.4
2017-Sep-20 12:00N 33°13' W 140°35'2 1.9 23.4
2017-Sep-20 11:00N 33°11' W 140°36'2 0.5 23.4
2017-Sep-20 07:00N 33°13' W 140°35'1 0.8 23.4
2017-Sep-20 06:00N 33°14' W 140°35'1 0.8 23.4
2017-Sep-20 05:00N 33°13' W 140°35'0 0.0 23.4
2017-Sep-20 04:00N 33°13' W 140°35'1 0.5 23.4
2017-Sep-20 03:00N 33°13' W 140°35'1 0.7 23.4
2017-Sep-20 01:00N 33°12' W 140°34'5 0.8 23.4
2017-Sep-19 19:00N 33°15' W 140°30'1 0.3 23.4
2017-Sep-19 17:00N 33°16' W 140°30'1 0.8 23.4
2017-Sep-19 16:00N 33°16' W 140°29'0 0.0 23.4
2017-Sep-19 15:00N 33°16' W 140°29'1 0.5 23.4
2017-Sep-19 14:00N 33°16' W 140°29'1 0.8 23.4
2017-Sep-19 13:00N 33°17' W 140°29'2 1.9 23.4
2017-Sep-19 12:00N 33°19' W 140°29'2 1.9 23.5
2017-Sep-19 11:00N 33°17' W 140°29'3 0.7 23.6
2017-Sep-19 07:00N 33°19' W 140°28'1 0.8 23.6
2017-Sep-19 06:00N 33°20' W 140°28'1 0.5 23.6
2017-Sep-19 05:00N 33°20' W 140°27'1 0.5 23.6
2017-Sep-19 04:00N 33°20' W 140°26'2 0.8 23.6
2017-Sep-19 02:00N 33°20' W 140°25'0 0.0 23.7
2017-Sep-19 01:00N 33°20' W 140°25'0 0.0 23.8
2017-Sep-19 00:00N 33°20' W 140°25'0 0.0 23.8
2017-Sep-18 23:00N 33°20' W 140°25'3 0.7 23.8
2017-Sep-18 19:00N 33°23' W 140°23'1 0.6 23.7
2017-Sep-18 18:00N 33°23' W 140°23'1 0.8 23.8
2017-Sep-18 17:00N 33°24' W 140°22'0 0.0 23.8
2017-Sep-18 16:00N 33°24' W 140°22'1 0.8 23.8
2017-Sep-18 15:00N 33°25' W 140°22'0 0.0 23.7
2017-Sep-18 14:00N 33°25' W 140°22'1 0.6 23.8
2017-Sep-18 13:00N 33°25' W 140°22'4 3.6 23.8
2017-Sep-18 12:00N 33°29' W 140°21'1 0.1 23.9
2017-Sep-18 07:00N 33°28' W 140°21'1 1.3 24.1
2017-Sep-18 06:00N 33°29' W 140°22'1 0.6 24.2
2017-Sep-18 05:00N 33°30' W 140°22'0 0.0 24.9
2017-Sep-18 04:00N 33°30' W 140°22'1 1.2 25.1
2017-Sep-18 03:00N 33°31' W 140°23'1 0.8 25.5
2017-Sep-18 02:00N 33°31' W 140°22'0 0.0 25.9
2017-Sep-18 00:00N 33°31' W 140°22'2 0.5 26.0
2017-Sep-17 20:00N 33°33' W 140°22'0 0.0 24.5
2017-Sep-17 19:00N 33°33' W 140°22'0 0.0 24.1
2017-Sep-17 18:00N 33°33' W 140°22'1 0.6 23.8
2017-Sep-17 17:00N 33°34' W 140°22'1 0.6 23.7
2017-Sep-17 16:00N 33°34' W 140°22'0 0.0 23.6
2017-Sep-17 15:00N 33°34' W 140°22'1 1.3 23.6
2017-Sep-17 14:00N 33°35' W 140°22'2 1.8 23.4
2017-Sep-17 13:00N 33°37' W 140°22'0 0.0 23.3
2017-Sep-17 12:00N 33°37' W 140°22'1 0.1 23.2
2017-Sep-17 07:00N 33°38' W 140°22'0 0.0 23.2
2017-Sep-17 06:00N 33°38' W 140°22'1 0.6 23.2
2017-Sep-17 05:00N 33°38' W 140°22'1 0.8 23.6
2017-Sep-17 04:00N 33°39' W 140°23'1 0.6 23.7
2017-Sep-17 03:00N 33°38' W 140°23'1 1.3 23.7
2017-Sep-17 02:00N 33°40' W 140°22'0 0.0 23.8
2017-Sep-17 01:00N 33°40' W 140°22'0 0.0 24.1
2017-Sep-17 00:00N 33°40' W 140°22'1 0.6 23.9
2017-Sep-16 22:00N 33°41' W 140°22'1 0.6 23.6
2017-Sep-16 20:00N 33°42' W 140°22'2 1.0 23.3
2017-Sep-16 18:00N 33°44' W 140°23'0 0.0 23.2
2017-Sep-16 17:00N 33°44' W 140°23'0 0.0 23.1
2017-Sep-16 16:00N 33°44' W 140°23'0 0.0 23.1
2017-Sep-16 15:00N 33°44' W 140°23'2 1.2 23.1
2017-Sep-16 13:00N 33°46' W 140°22'2 1.9 23.1
2017-Sep-16 12:00N 33°44' W 140°22'2 0.4 23.1
2017-Sep-16 07:00N 33°46' W 140°22'1 1.2 23.2
2017-Sep-16 06:00N 33°47' W 140°21'0 0.0 23.2
2017-Sep-16 05:00N 33°47' W 140°21'1 0.8 23.1
2017-Sep-16 04:00N 33°47' W 140°20'1 0.8 23.1
2017-Sep-16 03:00N 33°48' W 140°20'0 0.5 23.3
2017-Sep-16 02:00N 33°48' W 140°20'1 0.6 23.5
2017-Sep-16 01:00N 33°49' W 140°20'1 1.2 23.7
2017-Sep-16 00:00N 33°50' W 140°20'0 0.0 23.7
2017-Sep-15 23:00N 33°50' W 140°20'0 0.0 23.8
2017-Sep-15 22:00N 33°50' W 140°20'1 0.4 23.6
2017-Sep-15 20:00N 33°50' W 140°20'1 0.6 23.2
2017-Sep-15 19:00N 33°51' W 140°20'0 0.0 23.1
2017-Sep-15 18:00N 33°51' W 140°20'1 0.6 23.1
2017-Sep-15 17:00N 33°52' W 140°20'0 0.5 23.1
2017-Sep-15 16:00N 33°52' W 140°20'1 1.3 23.1
2017-Sep-15 15:00N 33°53' W 140°20'0 0.0 23.1
2017-Sep-15 14:00N 33°53' W 140°20'   23.1
Track history (hours):
 
Tides and Currents Weather Stations Pressure Air Temp Water Temp Dewpoint Dewpoint Depression Visibility Wind Speed Wind Dir Waves Ship Positions

Drifting buoy 52594

Last reported at 2017-Sep-25 14:00 UTC. Time now 2017-Sep-25 14:57 UTC.
Position N 33°13' W 141°04'.

Water temperature 23.6 ° C

Date/timePositionNaut miles runAvg speedWind from/ knotsBaromVisibWave heightAir tempDewpointWater temp
2017-Sep-25 14:00N 33°13' W 141°04'2 2.1 23.6
2017-Sep-25 13:00N 33°13' W 141°07'0 0.0 23.6
2017-Sep-25 12:00N 33°13' W 141°07'3 0.6 23.6
2017-Sep-25 07:00N 33°12' W 141°04'0 0.0 23.6
2017-Sep-25 06:00N 33°12' W 141°04'0 0.0 23.6
2017-Sep-25 05:00N 33°12' W 141°04'1 0.6 23.6
2017-Sep-25 04:00N 33°11' W 141°04'1 0.3 23.7
2017-Sep-25 02:00N 33°11' W 141°03'0 0.0 23.6
2017-Sep-25 01:00N 33°11' W 141°03'0 0.0 23.7
2017-Sep-25 00:00N 33°11' W 141°03'1 0.8 23.7
2017-Sep-24 23:00N 33°11' W 141°02'0 0.0 23.7
2017-Sep-24 22:00N 33°11' W 141°02'1 0.2 23.7
2017-Sep-24 19:00N 33°10' W 141°02'1 0.5 23.6
2017-Sep-24 18:00N 33°10' W 141°02'0 0.0 23.6
2017-Sep-24 17:00N 33°10' W 141°02'0 0.0 23.6
2017-Sep-24 16:00N 33°10' W 141°02'1 0.5 23.6
2017-Sep-24 15:00N 33°10' W 141°01'1 0.5 23.6
2017-Sep-24 14:00N 33°10' W 141°02'1 0.5 23.6
2017-Sep-24 13:00N 33°10' W 141°02'2 1.5 23.6
2017-Sep-24 12:00N 33°10' W 141°01'2 1.5 23.6
2017-Sep-24 11:00N 33°10' W 141°02'1 0.3 23.6
2017-Sep-24 07:00N 33°11' W 141°02'0 0.0 23.6
2017-Sep-24 06:00N 33°11' W 141°02'1 0.8 23.6
2017-Sep-24 05:00N 33°12' W 141°02'1 0.6 23.6
2017-Sep-24 04:00N 33°11' W 141°02'1 0.5 23.6
2017-Sep-24 03:00N 33°11' W 141°02'1 0.5 23.6
2017-Sep-24 01:00N 33°11' W 141°01'0 0.0 23.6
2017-Sep-24 00:00N 33°11' W 141°01'0 0.0 23.6
2017-Sep-23 23:00N 33°11' W 141°01'0 0.0 23.4
2017-Sep-23 22:00N 33°11' W 141°01'1 0.3 23.4
2017-Sep-23 20:00N 33°11' W 141°01'1 0.5 23.4
2017-Sep-23 19:00N 33°11' W 141°02'1 0.3 23.3
2017-Sep-23 17:00N 33°11' W 141°01'1 1.0 23.3
2017-Sep-23 16:00N 33°11' W 141°00'0 0.0 23.3
2017-Sep-23 15:00N 33°11' W 141°00'0 0.0 23.2
2017-Sep-23 14:00N 33°11' W 141°00'2 1.9 23.3
2017-Sep-23 13:00N 33°13' W 141°01'0 0.0 23.3
2017-Sep-23 12:00N 33°13' W 141°01'2 1.6 23.3
2017-Sep-23 11:00N 33°12' W 140°59'0 0.0 23.2
2017-Sep-23 07:00N 33°12' W 140°59'0 0.0 23.3
2017-Sep-23 06:00N 33°12' W 140°59'0 0.0 23.3
2017-Sep-23 05:00N 33°12' W 140°59'1 0.5 23.3
2017-Sep-23 04:00N 33°12' W 140°59'1 0.6 23.4
2017-Sep-23 03:00N 33°11' W 140°59'1 0.5 23.3
2017-Sep-23 01:00N 33°11' W 140°58'0 0.0 23.4
2017-Sep-23 00:00N 33°11' W 140°58'0 0.0
2017-Sep-22 23:00N 33°11' W 140°58'1 0.4 23.4
2017-Sep-22 20:00N 33°11' W 140°56'0 0.0 23.4
2017-Sep-22 18:00N 33°11' W 140°56'1 0.8 23.4
2017-Sep-22 17:00N 33°10' W 140°56'1 0.5 23.4
2017-Sep-22 16:00N 33°10' W 140°55'1 1.0 23.4
2017-Sep-22 15:00N 33°10' W 140°54'0 0.0 23.4
2017-Sep-22 14:00N 33°10' W 140°54'1 0.8 23.4
2017-Sep-22 13:00N 33°10' W 140°55'2 2.0 23.4
2017-Sep-22 12:00N 33°10' W 140°52'2 2.0 23.4
2017-Sep-22 11:00N 33°10' W 140°55'2 0.5 23.5
2017-Sep-22 07:00N 33°09' W 140°52'0 0.0 23.6
2017-Sep-22 06:00N 33°09' W 140°52'1 0.8 23.6
2017-Sep-22 05:00N 33°08' W 140°52'1 0.5 23.6
2017-Sep-22 04:00N 33°08' W 140°51'1 0.4 23.6
2017-Sep-22 02:00N 33°08' W 140°50'0 0.0 23.6
2017-Sep-22 01:00N 33°08' W 140°50'1 1.0 23.6
2017-Sep-22 00:00N 33°08' W 140°49'0 0.0 23.6
2017-Sep-21 23:00N 33°08' W 140°49'3 1.0 23.5
2017-Sep-21 20:00N 33°07' W 140°46'1 0.6 23.5
2017-Sep-21 18:00N 33°08' W 140°44'0 0.0 23.4
2017-Sep-21 17:00N 33°08' W 140°44'0 0.0 23.4
2017-Sep-21 16:00N 33°08' W 140°44'1 0.5 23.4
2017-Sep-21 15:00N 33°08' W 140°44'0 0.0 23.4
2017-Sep-21 14:00N 33°08' W 140°44'1 0.6 23.4
2017-Sep-21 13:00N 33°08' W 140°44'2 1.6 23.4
2017-Sep-21 12:00N 33°09' W 140°42'2 1.6 23.4
2017-Sep-21 11:00N 33°08' W 140°44'2 0.5 23.4
2017-Sep-21 08:00N 33°09' W 140°42'0 0.0 23.4
2017-Sep-21 07:00N 33°09' W 140°42'1 0.5 23.4
2017-Sep-21 06:00N 33°09' W 140°43'1 0.8 23.4
2017-Sep-21 05:00N 33°10' W 140°42'1 1.0 23.4
2017-Sep-21 04:00N 33°10' W 140°41'1 0.8 23.4
2017-Sep-21 03:00N 33°09' W 140°41'1 0.5 23.4
2017-Sep-21 02:00N 33°09' W 140°41'0 0.0
2017-Sep-21 01:00N 33°09' W 140°41'1 0.5
2017-Sep-21 00:00N 33°09' W 140°40'0 0.0 23.5
2017-Sep-20 23:00N 33°09' W 140°40'2 0.8 23.6
2017-Sep-20 20:00N 33°10' W 140°38'1 1.0 23.4
2017-Sep-20 19:00N 33°10' W 140°37'1 0.3 23.4
2017-Sep-20 17:00N 33°11' W 140°37'1 0.8 23.4
2017-Sep-20 16:00N 33°11' W 140°36'0 0.0 23.4
2017-Sep-20 15:00N 33°11' W 140°36'0 0.0 23.4
2017-Sep-20 14:00N 33°11' W 140°36'0 0.0 23.4
2017-Sep-20 13:00N 33°11' W 140°36'2 1.9 23.4
2017-Sep-20 12:00N 33°13' W 140°35'2 1.9 23.4
2017-Sep-20 11:00N 33°11' W 140°36'2 0.5 23.4
2017-Sep-20 07:00N 33°13' W 140°35'1 0.8 23.4
2017-Sep-20 06:00N 33°14' W 140°35'1 0.8 23.4
2017-Sep-20 05:00N 33°13' W 140°35'0 0.0 23.4
2017-Sep-20 04:00N 33°13' W 140°35'1 0.5 23.4
2017-Sep-20 03:00N 33°13' W 140°35'1 0.7 23.4
2017-Sep-20 01:00N 33°12' W 140°34'5 0.8 23.4
2017-Sep-19 19:00N 33°15' W 140°30'1 0.3 23.4
2017-Sep-19 17:00N 33°16' W 140°30'1 0.8 23.4
2017-Sep-19 16:00N 33°16' W 140°29'0 0.0 23.4
2017-Sep-19 15:00N 33°16' W 140°29'1 0.5 23.4
2017-Sep-19 14:00N 33°16' W 140°29'1 0.8 23.4
2017-Sep-19 13:00N 33°17' W 140°29'2 1.9 23.4
2017-Sep-19 12:00N 33°19' W 140°29'2 1.9 23.5
2017-Sep-19 11:00N 33°17' W 140°29'3 0.7 23.6
2017-Sep-19 07:00N 33°19' W 140°28'1 0.8 23.6
2017-Sep-19 06:00N 33°20' W 140°28'1 0.5 23.6
2017-Sep-19 05:00N 33°20' W 140°27'1 0.5 23.6
2017-Sep-19 04:00N 33°20' W 140°26'2 0.8 23.6
2017-Sep-19 02:00N 33°20' W 140°25'0 0.0 23.7
2017-Sep-19 01:00N 33°20' W 140°25'0 0.0 23.8
2017-Sep-19 00:00N 33°20' W 140°25'0 0.0 23.8
2017-Sep-18 23:00N 33°20' W 140°25'3 0.7 23.8
2017-Sep-18 19:00N 33°23' W 140°23'1 0.6 23.7
2017-Sep-18 18:00N 33°23' W 140°23'1 0.8 23.8
2017-Sep-18 17:00N 33°24' W 140°22'0 0.0 23.8
2017-Sep-18 16:00N 33°24' W 140°22'1 0.8 23.8
2017-Sep-18 15:00N 33°25' W 140°22'0 0.0 23.7
2017-Sep-18 14:00N 33°25' W 140°22'1 0.6 23.8
2017-Sep-18 13:00N 33°25' W 140°22'4 3.6 23.8
2017-Sep-18 12:00N 33°29' W 140°21'1 0.1 23.9
2017-Sep-18 07:00N 33°28' W 140°21'1 1.3 24.1
2017-Sep-18 06:00N 33°29' W 140°22'1 0.6 24.2
2017-Sep-18 05:00N 33°30' W 140°22'0 0.0 24.9
2017-Sep-18 04:00N 33°30' W 140°22'1 1.2 25.1
2017-Sep-18 03:00N 33°31' W 140°23'1 0.8 25.5
2017-Sep-18 02:00N 33°31' W 140°22'0 0.0 25.9
2017-Sep-18 00:00N 33°31' W 140°22'2 0.5 26.0
2017-Sep-17 20:00N 33°33' W 140°22'0 0.0 24.5
2017-Sep-17 19:00N 33°33' W 140°22'0 0.0 24.1
2017-Sep-17 18:00N 33°33' W 140°22'1 0.6 23.8
2017-Sep-17 17:00N 33°34' W 140°22'1 0.6 23.7
2017-Sep-17 16:00N 33°34' W 140°22'0 0.0 23.6
2017-Sep-17 15:00N 33°34' W 140°22'1 1.3 23.6
2017-Sep-17 14:00N 33°35' W 140°22'2 1.8 23.4
2017-Sep-17 13:00N 33°37' W 140°22'0 0.0 23.3
2017-Sep-17 12:00N 33°37' W 140°22'1 0.1 23.2
2017-Sep-17 07:00N 33°38' W 140°22'0 0.0 23.2
2017-Sep-17 06:00N 33°38' W 140°22'1 0.6 23.2
2017-Sep-17 05:00N 33°38' W 140°22'1 0.8 23.6
2017-Sep-17 04:00N 33°39' W 140°23'1 0.6 23.7
2017-Sep-17 03:00N 33°38' W 140°23'1 1.3 23.7
2017-Sep-17 02:00N 33°40' W 140°22'0 0.0 23.8
2017-Sep-17 01:00N 33°40' W 140°22'0 0.0 24.1
2017-Sep-17 00:00N 33°40' W 140°22'1 0.6 23.9
2017-Sep-16 22:00N 33°41' W 140°22'1 0.6 23.6
2017-Sep-16 20:00N 33°42' W 140°22'2 1.0 23.3
2017-Sep-16 18:00N 33°44' W 140°23'0 0.0 23.2
2017-Sep-16 17:00N 33°44' W 140°23'0 0.0 23.1
2017-Sep-16 16:00N 33°44' W 140°23'0 0.0 23.1
2017-Sep-16 15:00N 33°44' W 140°23'2 1.2 23.1
2017-Sep-16 13:00N 33°46' W 140°22'2 1.9 23.1
2017-Sep-16 12:00N 33°44' W 140°22'2 0.4 23.1
2017-Sep-16 07:00N 33°46' W 140°22'1 1.2 23.2
2017-Sep-16 06:00N 33°47' W 140°21'0 0.0 23.2
2017-Sep-16 05:00N 33°47' W 140°21'1 0.8 23.1
2017-Sep-16 04:00N 33°47' W 140°20'1 0.8 23.1
2017-Sep-16 03:00N 33°48' W 140°20'0 0.5 23.3
2017-Sep-16 02:00N 33°48' W 140°20'1 0.6 23.5
2017-Sep-16 01:00N 33°49' W 140°20'1 1.2 23.7
2017-Sep-16 00:00N 33°50' W 140°20'0 0.0 23.7
2017-Sep-15 23:00N 33°50' W 140°20'0 0.0 23.8
2017-Sep-15 22:00N 33°50' W 140°20'1 0.4 23.6
2017-Sep-15 20:00N 33°50' W 140°20'1 0.6 23.2
2017-Sep-15 19:00N 33°51' W 140°20'0 0.0 23.1
2017-Sep-15 18:00N 33°51' W 140°20'1 0.6 23.1
2017-Sep-15 17:00N 33°52' W 140°20'0 0.5 23.1
2017-Sep-15 16:00N 33°52' W 140°20'1 1.3 23.1
2017-Sep-15 15:00N 33°53' W 140°20'0 0.0 23.1
2017-Sep-15 14:00N 33°53' W 140°20'   23.1

Dump ship's entire track history